sensor_id;sensor_type;location;lat;lon;timestamp;temperature;humidity
16827;DHT22;8530;49.540;8.576;2023-01-24T00:00:48;3.70;99.00
16827;DHT22;8530;49.540;8.576;2023-01-24T00:03:15;3.70;99.00
16827;DHT22;8530;49.540;8.576;2023-01-24T00:05:45;3.70;99.00
16827;DHT22;8530;49.540;8.576;2023-01-24T00:08:13;3.70;99.00
16827;DHT22;8530;49.540;8.576;2023-01-24T00:10:44;3.80;99.00
16827;DHT22;8530;49.540;8.576;2023-01-24T00:13:13;3.80;99.00
16827;DHT22;8530;49.540;8.576;2023-01-24T00:15:40;3.80;99.00
16827;DHT22;8530;49.540;8.576;2023-01-24T00:18:06;3.80;99.00
16827;DHT22;8530;49.540;8.576;2023-01-24T00:20:33;3.80;99.00
16827;DHT22;8530;49.540;8.576;2023-01-24T00:23:01;3.80;99.00
16827;DHT22;8530;49.540;8.576;2023-01-24T00:25:28;3.80;99.00
16827;DHT22;8530;49.540;8.576;2023-01-24T00:27:55;3.90;99.00
16827;DHT22;8530;49.540;8.576;2023-01-24T00:30:22;3.80;99.00
16827;DHT22;8530;49.540;8.576;2023-01-24T00:32:48;3.80;99.00
16827;DHT22;8530;49.540;8.576;2023-01-24T00:35:15;3.80;99.00
16827;DHT22;8530;49.540;8.576;2023-01-24T00:37:42;3.80;99.00
16827;DHT22;8530;49.540;8.576;2023-01-24T00:40:11;3.80;99.00
16827;DHT22;8530;49.540;8.576;2023-01-24T00:42:38;3.80;98.90
16827;DHT22;8530;49.540;8.576;2023-01-24T00:45:05;3.80;99.00
16827;DHT22;8530;49.540;8.576;2023-01-24T00:47:32;3.90;99.00
16827;DHT22;8530;49.540;8.576;2023-01-24T00:50:00;3.80;99.00
16827;DHT22;8530;49.540;8.576;2023-01-24T00:52:26;3.90;99.00
16827;DHT22;8530;49.540;8.576;2023-01-24T00:54:53;3.90;99.00
16827;DHT22;8530;49.540;8.576;2023-01-24T00:57:24;3.90;99.00
16827;DHT22;8530;49.540;8.576;2023-01-24T00:59:50;3.90;99.00
16827;DHT22;8530;49.540;8.576;2023-01-24T01:02:19;3.90;98.90
16827;DHT22;8530;49.540;8.576;2023-01-24T01:04:46;3.90;98.90
16827;DHT22;8530;49.540;8.576;2023-01-24T01:07:13;3.90;98.90
16827;DHT22;8530;49.540;8.576;2023-01-24T01:09:40;3.90;98.90
16827;DHT22;8530;49.540;8.576;2023-01-24T01:12:07;3.90;98.90
16827;DHT22;8530;49.540;8.576;2023-01-24T01:14:35;3.90;98.90
16827;DHT22;8530;49.540;8.576;2023-01-24T01:17:02;3.90;98.90
16827;DHT22;8530;49.540;8.576;2023-01-24T01:19:29;3.90;98.80
16827;DHT22;8530;49.540;8.576;2023-01-24T01:21:56;3.90;98.80
16827;DHT22;8530;49.540;8.576;2023-01-24T01:24:22;3.90;98.80
16827;DHT22;8530;49.540;8.576;2023-01-24T01:26:49;3.90;98.80
16827;DHT22;8530;49.540;8.576;2023-01-24T01:29:16;3.90;98.70
16827;DHT22;8530;49.540;8.576;2023-01-24T01:31:44;3.90;98.70
16827;DHT22;8530;49.540;8.576;2023-01-24T01:34:11;3.90;98.70
16827;DHT22;8530;49.540;8.576;2023-01-24T01:36:38;3.90;98.70
16827;DHT22;8530;49.540;8.576;2023-01-24T01:39:04;3.90;98.60
16827;DHT22;8530;49.540;8.576;2023-01-24T01:41:32;3.90;98.60
16827;DHT22;8530;49.540;8.576;2023-01-24T01:44:18;3.90;98.70
16827;DHT22;8530;49.540;8.576;2023-01-24T01:47:04;3.90;98.60
16827;DHT22;8530;49.540;8.576;2023-01-24T01:49:33;3.90;98.60
16827;DHT22;8530;49.540;8.576;2023-01-24T01:52:02;3.90;98.60
16827;DHT22;8530;49.540;8.576;2023-01-24T01:54:33;3.90;98.60
16827;DHT22;8530;49.540;8.576;2023-01-24T01:57:03;3.90;98.60
16827;DHT22;8530;49.540;8.576;2023-01-24T01:59:34;3.90;98.60
16827;DHT22;8530;49.540;8.576;2023-01-24T02:02:03;3.90;98.60
16827;DHT22;8530;49.540;8.576;2023-01-24T02:04:34;3.90;98.60
16827;DHT22;8530;49.540;8.576;2023-01-24T02:07:05;3.90;98.60
16827;DHT22;8530;49.540;8.576;2023-01-24T02:09:41;3.90;98.50
16827;DHT22;8530;49.540;8.576;2023-01-24T02:12:11;3.90;98.50
16827;DHT22;8530;49.540;8.576;2023-01-24T02:14:39;3.90;98.50
16827;DHT22;8530;49.540;8.576;2023-01-24T02:17:25;3.90;98.50
16827;DHT22;8530;49.540;8.576;2023-01-24T02:23:03;3.90;98.50
16827;DHT22;8530;49.540;8.576;2023-01-24T02:25:36;3.90;98.50
16827;DHT22;8530;49.540;8.576;2023-01-24T02:28:08;3.90;98.50
16827;DHT22;8530;49.540;8.576;2023-01-24T02:30:36;3.90;98.50
16827;DHT22;8530;49.540;8.576;2023-01-24T02:33:15;3.90;98.50
16827;DHT22;8530;49.540;8.576;2023-01-24T02:35:42;3.90;98.40
16827;DHT22;8530;49.540;8.576;2023-01-24T02:38:16;3.90;98.50
16827;DHT22;8530;49.540;8.576;2023-01-24T02:40:45;3.90;98.50
16827;DHT22;8530;49.540;8.576;2023-01-24T02:43:14;3.90;98.50
16827;DHT22;8530;49.540;8.576;2023-01-24T02:45:41;3.90;98.50
16827;DHT22;8530;49.540;8.576;2023-01-24T02:48:08;3.90;98.50
16827;DHT22;8530;49.540;8.576;2023-01-24T02:50:35;3.90;98.40
16827;DHT22;8530;49.540;8.576;2023-01-24T02:53:16;3.90;98.40
16827;DHT22;8530;49.540;8.576;2023-01-24T02:55:55;3.90;98.40
16827;DHT22;8530;49.540;8.576;2023-01-24T02:58:40;3.90;98.40
16827;DHT22;8530;49.540;8.576;2023-01-24T03:01:07;3.90;98.40
16827;DHT22;8530;49.540;8.576;2023-01-24T03:03:33;3.90;98.40
16827;DHT22;8530;49.540;8.576;2023-01-24T03:06:00;3.90;98.40
16827;DHT22;8530;49.540;8.576;2023-01-24T03:08:30;3.90;98.40
16827;DHT22;8530;49.540;8.576;2023-01-24T03:10:57;3.90;98.40
16827;DHT22;8530;49.540;8.576;2023-01-24T03:13:24;3.90;98.40
16827;DHT22;8530;49.540;8.576;2023-01-24T03:16:10;3.90;98.40
16827;DHT22;8530;49.540;8.576;2023-01-24T03:18:55;3.90;98.30
16827;DHT22;8530;49.540;8.576;2023-01-24T03:21:40;3.90;98.30
16827;DHT22;8530;49.540;8.576;2023-01-24T03:24:24;3.90;98.30
16827;DHT22;8530;49.540;8.576;2023-01-24T03:27:09;3.90;98.30
16827;DHT22;8530;49.540;8.576;2023-01-24T03:29:53;3.90;98.20
16827;DHT22;8530;49.540;8.576;2023-01-24T03:32:39;3.90;98.20
16827;DHT22;8530;49.540;8.576;2023-01-24T03:35:25;3.90;98.10
16827;DHT22;8530;49.540;8.576;2023-01-24T03:37:52;3.90;98.10
16827;DHT22;8530;49.540;8.576;2023-01-24T03:40:37;3.90;98.10
16827;DHT22;8530;49.540;8.576;2023-01-24T03:43:04;3.90;98.10
16827;DHT22;8530;49.540;8.576;2023-01-24T03:45:34;3.90;98.10
16827;DHT22;8530;49.540;8.576;2023-01-24T03:48:05;3.90;98.20
16827;DHT22;8530;49.540;8.576;2023-01-24T03:50:36;3.90;98.20
16827;DHT22;8530;49.540;8.576;2023-01-24T03:53:23;3.90;98.20
16827;DHT22;8530;49.540;8.576;2023-01-24T03:55:51;3.90;98.20
16827;DHT22;8530;49.540;8.576;2023-01-24T03:58:18;3.90;98.10
16827;DHT22;8530;49.540;8.576;2023-01-24T04:00:45;3.90;98.10
16827;DHT22;8530;49.540;8.576;2023-01-24T04:03:14;3.90;98.10
16827;DHT22;8530;49.540;8.576;2023-01-24T04:05:40;3.90;98.10
16827;DHT22;8530;49.540;8.576;2023-01-24T04:08:07;3.90;98.10
16827;DHT22;8530;49.540;8.576;2023-01-24T04:10:34;3.80;98.00
16827;DHT22;8530;49.540;8.576;2023-01-24T04:13:05;3.80;98.00
16827;DHT22;8530;49.540;8.576;2023-01-24T04:15:37;3.80;98.00
16827;DHT22;8530;49.540;8.576;2023-01-24T04:18:05;3.80;98.00
16827;DHT22;8530;49.540;8.576;2023-01-24T04:20:35;3.80;98.00
16827;DHT22;8530;49.540;8.576;2023-01-24T04:23:03;3.80;98.00
16827;DHT22;8530;49.540;8.576;2023-01-24T04:25:30;3.80;98.00
16827;DHT22;8530;49.540;8.576;2023-01-24T04:27:57;3.80;98.10
16827;DHT22;8530;49.540;8.576;2023-01-24T04:30:24;3.80;98.10
16827;DHT22;8530;49.540;8.576;2023-01-24T04:32:50;3.80;98.00
16827;DHT22;8530;49.540;8.576;2023-01-24T04:35:18;3.80;98.00
16827;DHT22;8530;49.540;8.576;2023-01-24T04:37:47;3.80;98.00
16827;DHT22;8530;49.540;8.576;2023-01-24T04:40:14;3.80;98.00
16827;DHT22;8530;49.540;8.576;2023-01-24T04:42:43;3.80;98.00
16827;DHT22;8530;49.540;8.576;2023-01-24T04:45:10;3.80;98.00
16827;DHT22;8530;49.540;8.576;2023-01-24T04:47:37;3.80;97.90
16827;DHT22;8530;49.540;8.576;2023-01-24T04:50:05;3.80;97.90
16827;DHT22;8530;49.540;8.576;2023-01-24T04:52:32;3.80;97.90
16827;DHT22;8530;49.540;8.576;2023-01-24T04:55:00;3.80;97.90
16827;DHT22;8530;49.540;8.576;2023-01-24T04:57:28;3.70;97.80
16827;DHT22;8530;49.540;8.576;2023-01-24T04:59:54;3.70;97.80
16827;DHT22;8530;49.540;8.576;2023-01-24T05:02:21;3.70;97.90
16827;DHT22;8530;49.540;8.576;2023-01-24T05:04:48;3.70;97.90
16827;DHT22;8530;49.540;8.576;2023-01-24T05:07:14;3.70;97.90
16827;DHT22;8530;49.540;8.576;2023-01-24T05:09:41;3.70;97.90
16827;DHT22;8530;49.540;8.576;2023-01-24T05:12:09;3.70;97.90
16827;DHT22;8530;49.540;8.576;2023-01-24T05:14:36;3.70;97.90
16827;DHT22;8530;49.540;8.576;2023-01-24T05:17:03;3.70;97.90
16827;DHT22;8530;49.540;8.576;2023-01-24T05:19:29;3.70;97.90
16827;DHT22;8530;49.540;8.576;2023-01-24T05:21:56;3.70;97.90
16827;DHT22;8530;49.540;8.576;2023-01-24T05:24:23;3.60;97.80
16827;DHT22;8530;49.540;8.576;2023-01-24T05:26:50;3.60;97.80
16827;DHT22;8530;49.540;8.576;2023-01-24T05:29:18;3.60;97.90
16827;DHT22;8530;49.540;8.576;2023-01-24T05:31:45;3.60;97.90
16827;DHT22;8530;49.540;8.576;2023-01-24T05:34:12;3.60;97.90
16827;DHT22;8530;49.540;8.576;2023-01-24T05:36:39;3.60;97.90
16827;DHT22;8530;49.540;8.576;2023-01-24T05:39:06;3.60;98.00
16827;DHT22;8530;49.540;8.576;2023-01-24T05:41:33;3.60;98.00
16827;DHT22;8530;49.540;8.576;2023-01-24T05:43:59;3.70;98.00
16827;DHT22;8530;49.540;8.576;2023-01-24T05:46:27;3.70;98.00
16827;DHT22;8530;49.540;8.576;2023-01-24T05:48:55;3.70;98.00
16827;DHT22;8530;49.540;8.576;2023-01-24T05:51:22;3.70;98.00
16827;DHT22;8530;49.540;8.576;2023-01-24T05:53:49;3.70;98.00
16827;DHT22;8530;49.540;8.576;2023-01-24T05:56:18;3.70;98.00
16827;DHT22;8530;49.540;8.576;2023-01-24T05:58:46;3.70;98.00
16827;DHT22;8530;49.540;8.576;2023-01-24T06:01:15;3.70;98.30
16827;DHT22;8530;49.540;8.576;2023-01-24T06:03:44;3.60;98.00
16827;DHT22;8530;49.540;8.576;2023-01-24T06:06:13;3.70;98.00
16827;DHT22;8530;49.540;8.576;2023-01-24T06:08:39;3.70;98.10
16827;DHT22;8530;49.540;8.576;2023-01-24T06:11:11;3.60;98.00
16827;DHT22;8530;49.540;8.576;2023-01-24T06:13:38;3.60;98.00
16827;DHT22;8530;49.540;8.576;2023-01-24T06:16:08;3.60;98.00
16827;DHT22;8530;49.540;8.576;2023-01-24T06:18:37;3.60;98.00
16827;DHT22;8530;49.540;8.576;2023-01-24T06:21:10;3.60;98.00
16827;DHT22;8530;49.540;8.576;2023-01-24T06:23:42;3.60;98.10
16827;DHT22;8530;49.540;8.576;2023-01-24T06:26:10;3.60;98.10
16827;DHT22;8530;49.540;8.576;2023-01-24T06:28:37;3.60;98.10
16827;DHT22;8530;49.540;8.576;2023-01-24T06:31:10;3.60;98.10
16827;DHT22;8530;49.540;8.576;2023-01-24T06:33:47;3.70;98.20
16827;DHT22;8530;49.540;8.576;2023-01-24T06:36:27;3.60;98.10
16827;DHT22;8530;49.540;8.576;2023-01-24T06:38:57;3.60;98.10
16827;DHT22;8530;49.540;8.576;2023-01-24T06:41:24;3.60;98.20
16827;DHT22;8530;49.540;8.576;2023-01-24T06:43:52;3.60;98.20
16827;DHT22;8530;49.540;8.576;2023-01-24T06:46:19;3.60;98.20
16827;DHT22;8530;49.540;8.576;2023-01-24T06:48:46;3.60;98.20
16827;DHT22;8530;49.540;8.576;2023-01-24T06:51:13;3.60;98.20
16827;DHT22;8530;49.540;8.576;2023-01-24T06:53:41;3.70;98.30
16827;DHT22;8530;49.540;8.576;2023-01-24T06:56:09;3.70;98.30
16827;DHT22;8530;49.540;8.576;2023-01-24T06:58:36;3.70;98.40
16827;DHT22;8530;49.540;8.576;2023-01-24T07:01:03;3.70;98.30
16827;DHT22;8530;49.540;8.576;2023-01-24T07:03:29;3.70;98.30
16827;DHT22;8530;49.540;8.576;2023-01-24T07:05:57;3.70;98.40
16827;DHT22;8530;49.540;8.576;2023-01-24T07:08:23;3.70;98.40
16827;DHT22;8530;49.540;8.576;2023-01-24T07:10:52;3.70;98.50
16827;DHT22;8530;49.540;8.576;2023-01-24T07:13:18;3.70;98.50
16827;DHT22;8530;49.540;8.576;2023-01-24T07:15:45;3.80;98.60
16827;DHT22;8530;49.540;8.576;2023-01-24T07:18:13;3.80;98.60
16827;DHT22;8530;49.540;8.576;2023-01-24T07:20:41;3.80;98.60
16827;DHT22;8530;49.540;8.576;2023-01-24T07:23:17;3.80;98.60
16827;DHT22;8530;49.540;8.576;2023-01-24T07:25:45;3.80;98.60
16827;DHT22;8530;49.540;8.576;2023-01-24T07:28:15;3.80;98.60
16827;DHT22;8530;49.540;8.576;2023-01-24T07:30:42;3.80;98.60
16827;DHT22;8530;49.540;8.576;2023-01-24T07:33:10;3.80;98.60
16827;DHT22;8530;49.540;8.576;2023-01-24T07:35:38;3.80;98.60
16827;DHT22;8530;49.540;8.576;2023-01-24T07:38:04;3.80;98.60
16827;DHT22;8530;49.540;8.576;2023-01-24T07:40:31;3.80;98.60
16827;DHT22;8530;49.540;8.576;2023-01-24T07:42:59;3.80;98.60
16827;DHT22;8530;49.540;8.576;2023-01-24T07:45:27;3.80;98.60
16827;DHT22;8530;49.540;8.576;2023-01-24T07:47:54;3.90;98.60
16827;DHT22;8530;49.540;8.576;2023-01-24T07:50:22;3.90;98.60
16827;DHT22;8530;49.540;8.576;2023-01-24T07:52:50;3.90;98.60
16827;DHT22;8530;49.540;8.576;2023-01-24T07:55:17;3.80;98.60
16827;DHT22;8530;49.540;8.576;2023-01-24T07:57:44;3.80;98.60
16827;DHT22;8530;49.540;8.576;2023-01-24T08:00:12;3.80;98.60
16827;DHT22;8530;49.540;8.576;2023-01-24T08:02:41;3.90;98.70
16827;DHT22;8530;49.540;8.576;2023-01-24T08:05:08;3.90;98.70
16827;DHT22;8530;49.540;8.576;2023-01-24T08:07:36;3.90;98.70
16827;DHT22;8530;49.540;8.576;2023-01-24T08:10:03;3.90;98.70
16827;DHT22;8530;49.540;8.576;2023-01-24T08:12:30;3.90;98.70
16827;DHT22;8530;49.540;8.576;2023-01-24T08:14:57;3.90;98.70
16827;DHT22;8530;49.540;8.576;2023-01-24T08:17:24;4.00;98.80
16827;DHT22;8530;49.540;8.576;2023-01-24T08:19:52;4.00;98.80
16827;DHT22;8530;49.540;8.576;2023-01-24T08:22:19;4.00;98.70
16827;DHT22;8530;49.540;8.576;2023-01-24T08:24:47;4.00;98.80
16827;DHT22;8530;49.540;8.576;2023-01-24T08:27:13;4.00;98.80
16827;DHT22;8530;49.540;8.576;2023-01-24T08:29:40;4.00;98.80
16827;DHT22;8530;49.540;8.576;2023-01-24T08:32:07;4.00;98.80
16827;DHT22;8530;49.540;8.576;2023-01-24T08:34:33;4.00;98.80
16827;DHT22;8530;49.540;8.576;2023-01-24T08:37:01;4.00;98.80
16827;DHT22;8530;49.540;8.576;2023-01-24T08:39:28;4.00;98.80
16827;DHT22;8530;49.540;8.576;2023-01-24T08:41:55;4.00;98.70
16827;DHT22;8530;49.540;8.576;2023-01-24T08:44:21;4.10;98.80
16827;DHT22;8530;49.540;8.576;2023-01-24T08:46:49;4.10;98.80
16827;DHT22;8530;49.540;8.576;2023-01-24T08:49:15;4.10;98.80
16827;DHT22;8530;49.540;8.576;2023-01-24T08:51:42;4.10;98.90
16827;DHT22;8530;49.540;8.576;2023-01-24T08:54:10;4.10;98.90
16827;DHT22;8530;49.540;8.576;2023-01-24T08:56:37;4.10;98.90
16827;DHT22;8530;49.540;8.576;2023-01-24T08:59:04;4.20;98.90
16827;DHT22;8530;49.540;8.576;2023-01-24T09:01:31;4.20;98.90
16827;DHT22;8530;49.540;8.576;2023-01-24T09:03:58;4.20;98.90
16827;DHT22;8530;49.540;8.576;2023-01-24T09:06:26;4.20;98.90
16827;DHT22;8530;49.540;8.576;2023-01-24T09:08:54;4.30;98.90
16827;DHT22;8530;49.540;8.576;2023-01-24T09:11:22;4.30;98.90
16827;DHT22;8530;49.540;8.576;2023-01-24T09:13:49;4.40;98.90
16827;DHT22;8530;49.540;8.576;2023-01-24T09:16:16;4.40;98.90
16827;DHT22;8530;49.540;8.576;2023-01-24T09:18:43;4.40;98.80
16827;DHT22;8530;49.540;8.576;2023-01-24T09:21:10;4.40;98.80
16827;DHT22;8530;49.540;8.576;2023-01-24T09:23:37;4.40;98.80
16827;DHT22;8530;49.540;8.576;2023-01-24T09:26:05;4.50;98.80
16827;DHT22;8530;49.540;8.576;2023-01-24T09:28:33;4.50;98.80
16827;DHT22;8530;49.540;8.576;2023-01-24T09:31:00;4.60;98.80
16827;DHT22;8530;49.540;8.576;2023-01-24T09:33:27;4.60;98.70
16827;DHT22;8530;49.540;8.576;2023-01-24T09:35:55;4.60;98.70
16827;DHT22;8530;49.540;8.576;2023-01-24T09:38:23;4.60;98.70
16827;DHT22;8530;49.540;8.576;2023-01-24T09:40:56;4.60;98.70
16827;DHT22;8530;49.540;8.576;2023-01-24T09:43:41;4.60;98.70
16827;DHT22;8530;49.540;8.576;2023-01-24T09:46:16;4.70;98.90
16827;DHT22;8530;49.540;8.576;2023-01-24T09:48:46;4.70;98.70
16827;DHT22;8530;49.540;8.576;2023-01-24T09:51:17;4.70;98.70
16827;DHT22;8530;49.540;8.576;2023-01-24T09:53:48;4.70;98.60
16827;DHT22;8530;49.540;8.576;2023-01-24T09:56:21;4.80;98.70
16827;DHT22;8530;49.540;8.576;2023-01-24T10:01:33;4.90;98.70
16827;DHT22;8530;49.540;8.576;2023-01-24T10:04:00;4.90;98.70
16827;DHT22;8530;49.540;8.576;2023-01-24T10:06:27;4.90;98.50
16827;DHT22;8530;49.540;8.576;2023-01-24T10:08:58;4.90;98.60
16827;DHT22;8530;49.540;8.576;2023-01-24T10:11:39;5.00;98.60
16827;DHT22;8530;49.540;8.576;2023-01-24T10:14:43;5.00;98.60
16827;DHT22;8530;49.540;8.576;2023-01-24T10:17:54;5.10;98.50
16827;DHT22;8530;49.540;8.576;2023-01-24T10:20:32;5.10;98.50
16827;DHT22;8530;49.540;8.576;2023-01-24T10:23:08;5.20;98.50
16827;DHT22;8530;49.540;8.576;2023-01-24T10:25:49;5.20;98.30
16827;DHT22;8530;49.540;8.576;2023-01-24T10:28:19;5.20;98.20
16827;DHT22;8530;49.540;8.576;2023-01-24T10:30:54;5.20;98.20
16827;DHT22;8530;49.540;8.576;2023-01-24T10:33:27;5.20;98.30
16827;DHT22;8530;49.540;8.576;2023-01-24T10:35:58;5.20;98.30
16827;DHT22;8530;49.540;8.576;2023-01-24T10:38:26;5.30;98.40
16827;DHT22;8530;49.540;8.576;2023-01-24T10:40:56;5.40;98.40
16827;DHT22;8530;49.540;8.576;2023-01-24T10:43:29;5.40;98.20
16827;DHT22;8530;49.540;8.576;2023-01-24T10:46:06;5.40;98.10
16827;DHT22;8530;49.540;8.576;2023-01-24T10:48:44;5.40;98.00
16827;DHT22;8530;49.540;8.576;2023-01-24T10:51:14;5.30;97.90
16827;DHT22;8530;49.540;8.576;2023-01-24T10:53:42;5.30;97.70
16827;DHT22;8530;49.540;8.576;2023-01-24T10:56:10;5.20;97.70
16827;DHT22;8530;49.540;8.576;2023-01-24T10:58:41;5.20;97.70
16827;DHT22;8530;49.540;8.576;2023-01-24T11:01:16;5.20;97.90
16827;DHT22;8530;49.540;8.576;2023-01-24T11:03:49;5.20;97.60
16827;DHT22;8530;49.540;8.576;2023-01-24T11:06:22;5.10;97.60
16827;DHT22;8530;49.540;8.576;2023-01-24T11:08:53;5.10;97.60
16827;DHT22;8530;49.540;8.576;2023-01-24T11:11:28;5.10;97.60
16827;DHT22;8530;49.540;8.576;2023-01-24T11:13:57;5.10;97.50
16827;DHT22;8530;49.540;8.576;2023-01-24T11:16:29;5.00;97.50
16827;DHT22;8530;49.540;8.576;2023-01-24T11:19:00;5.00;97.50
16827;DHT22;8530;49.540;8.576;2023-01-24T11:21:29;5.00;97.60
16827;DHT22;8530;49.540;8.576;2023-01-24T11:24:01;5.00;97.60
16827;DHT22;8530;49.540;8.576;2023-01-24T11:26:30;5.10;97.60
16827;DHT22;8530;49.540;8.576;2023-01-24T11:29:01;5.10;97.50
16827;DHT22;8530;49.540;8.576;2023-01-24T11:31:35;5.10;97.50
16827;DHT22;8530;49.540;8.576;2023-01-24T11:37:31;5.10;97.50
16827;DHT22;8530;49.540;8.576;2023-01-24T11:40:36;5.10;97.40
16827;DHT22;8530;49.540;8.576;2023-01-24T11:46:20;5.00;97.30
16827;DHT22;8530;49.540;8.576;2023-01-24T11:48:53;5.00;97.30
16827;DHT22;8530;49.540;8.576;2023-01-24T11:51:32;5.00;97.40
16827;DHT22;8530;49.540;8.576;2023-01-24T11:54:14;5.10;97.70
16827;DHT22;8530;49.540;8.576;2023-01-24T11:56:50;5.10;97.40
16827;DHT22;8530;49.540;8.576;2023-01-24T11:59:40;5.10;97.40
16827;DHT22;8530;49.540;8.576;2023-01-24T12:02:23;5.00;97.30
16827;DHT22;8530;49.540;8.576;2023-01-24T12:05:15;5.00;97.10
16827;DHT22;8530;49.540;8.576;2023-01-24T12:07:55;4.90;97.10
16827;DHT22;8530;49.540;8.576;2023-01-24T12:10:28;4.80;97.00
16827;DHT22;8530;49.540;8.576;2023-01-24T12:13:03;4.80;97.00
16827;DHT22;8530;49.540;8.576;2023-01-24T12:15:38;4.70;97.10
16827;DHT22;8530;49.540;8.576;2023-01-24T12:18:19;4.70;97.10
16827;DHT22;8530;49.540;8.576;2023-01-24T12:20:56;4.70;97.20
16827;DHT22;8530;49.540;8.576;2023-01-24T12:23:28;4.80;97.20
16827;DHT22;8530;49.540;8.576;2023-01-24T12:26:03;4.80;97.20
16827;DHT22;8530;49.540;8.576;2023-01-24T12:28:35;4.80;97.20
16827;DHT22;8530;49.540;8.576;2023-01-24T12:31:03;4.80;97.20
16827;DHT22;8530;49.540;8.576;2023-01-24T12:33:34;4.80;97.20
16827;DHT22;8530;49.540;8.576;2023-01-24T12:36:11;4.80;97.10
16827;DHT22;8530;49.540;8.576;2023-01-24T12:38:40;4.90;97.20
16827;DHT22;8530;49.540;8.576;2023-01-24T12:41:15;4.80;97.00
16827;DHT22;8530;49.540;8.576;2023-01-24T12:43:58;4.80;97.00
16827;DHT22;8530;49.540;8.576;2023-01-24T12:46:32;4.80;97.00
16827;DHT22;8530;49.540;8.576;2023-01-24T12:49:08;4.80;97.30
16827;DHT22;8530;49.540;8.576;2023-01-24T12:51:42;4.80;97.30
16827;DHT22;8530;49.540;8.576;2023-01-24T12:54:15;4.80;97.00
16827;DHT22;8530;49.540;8.576;2023-01-24T12:56:50;4.80;97.00
16827;DHT22;8530;49.540;8.576;2023-01-24T12:59:22;4.80;97.00
16827;DHT22;8530;49.540;8.576;2023-01-24T13:04:50;4.90;97.00
16827;DHT22;8530;49.540;8.576;2023-01-24T13:07:31;4.90;96.90
16827;DHT22;8530;49.540;8.576;2023-01-24T13:10:09;4.90;96.80
16827;DHT22;8530;49.540;8.576;2023-01-24T13:12:38;4.80;96.70
16827;DHT22;8530;49.540;8.576;2023-01-24T13:15:14;4.80;96.70
16827;DHT22;8530;49.540;8.576;2023-01-24T13:18:11;4.80;96.80
16827;DHT22;8530;49.540;8.576;2023-01-24T13:20:51;4.80;96.80
16827;DHT22;8530;49.540;8.576;2023-01-24T13:23:32;4.80;96.70
16827;DHT22;8530;49.540;8.576;2023-01-24T13:26:29;4.80;96.70
16827;DHT22;8530;49.540;8.576;2023-01-24T13:29:09;4.90;96.60
16827;DHT22;8530;49.540;8.576;2023-01-24T13:31:48;4.80;96.60
16827;DHT22;8530;49.540;8.576;2023-01-24T13:34:20;4.80;96.60
16827;DHT22;8530;49.540;8.576;2023-01-24T13:36:50;4.80;96.60
16827;DHT22;8530;49.540;8.576;2023-01-24T13:39:30;4.80;96.80
16827;DHT22;8530;49.540;8.576;2023-01-24T13:42:02;4.80;96.60
16827;DHT22;8530;49.540;8.576;2023-01-24T13:44:31;4.80;96.60
16827;DHT22;8530;49.540;8.576;2023-01-24T13:49:45;4.70;96.50
16827;DHT22;8530;49.540;8.576;2023-01-24T13:52:37;4.70;96.50
16827;DHT22;8530;49.540;8.576;2023-01-24T13:58:17;4.70;96.50
16827;DHT22;8530;49.540;8.576;2023-01-24T14:00:48;4.70;96.50
16827;DHT22;8530;49.540;8.576;2023-01-24T14:03:19;4.80;96.50
16827;DHT22;8530;49.540;8.576;2023-01-24T14:05:49;4.80;96.50
16827;DHT22;8530;49.540;8.576;2023-01-24T14:11:37;4.80;96.40
16827;DHT22;8530;49.540;8.576;2023-01-24T14:17:45;4.80;96.40
16827;DHT22;8530;49.540;8.576;2023-01-24T14:23:12;4.70;96.30
16827;DHT22;8530;49.540;8.576;2023-01-24T14:25:48;4.80;96.30
16827;DHT22;8530;49.540;8.576;2023-01-24T14:28:20;4.70;96.20
16827;DHT22;8530;49.540;8.576;2023-01-24T14:30:54;4.70;96.20
16827;DHT22;8530;49.540;8.576;2023-01-24T14:33:33;4.60;96.10
16827;DHT22;8530;49.540;8.576;2023-01-24T14:36:07;4.60;96.20
16827;DHT22;8530;49.540;8.576;2023-01-24T14:38:37;4.60;96.20
16827;DHT22;8530;49.540;8.576;2023-01-24T14:41:04;4.50;96.20
16827;DHT22;8530;49.540;8.576;2023-01-24T14:43:36;4.50;96.20
16827;DHT22;8530;49.540;8.576;2023-01-24T14:46:11;4.50;96.30
16827;DHT22;8530;49.540;8.576;2023-01-24T14:48:40;4.40;96.30
16827;DHT22;8530;49.540;8.576;2023-01-24T14:51:14;4.40;96.40
16827;DHT22;8530;49.540;8.576;2023-01-24T14:53:47;4.40;96.40
16827;DHT22;8530;49.540;8.576;2023-01-24T14:56:14;4.40;96.40
16827;DHT22;8530;49.540;8.576;2023-01-24T14:58:42;4.30;96.40
16827;DHT22;8530;49.540;8.576;2023-01-24T15:01:24;4.30;96.40
16827;DHT22;8530;49.540;8.576;2023-01-24T15:03:53;4.30;96.50
16827;DHT22;8530;49.540;8.576;2023-01-24T15:06:22;4.30;96.50
16827;DHT22;8530;49.540;8.576;2023-01-24T15:08:53;4.30;96.50
16827;DHT22;8530;49.540;8.576;2023-01-24T15:11:22;4.20;96.50
16827;DHT22;8530;49.540;8.576;2023-01-24T15:13:51;4.20;96.60
16827;DHT22;8530;49.540;8.576;2023-01-24T15:16:23;4.20;96.90
16827;DHT22;8530;49.540;8.576;2023-01-24T15:18:54;4.20;96.60
16827;DHT22;8530;49.540;8.576;2023-01-24T15:21:28;4.20;96.70
16827;DHT22;8530;49.540;8.576;2023-01-24T15:23:57;4.20;96.70
16827;DHT22;8530;49.540;8.576;2023-01-24T15:26:36;4.20;96.70
16827;DHT22;8530;49.540;8.576;2023-01-24T15:32:30;4.10;96.80
16827;DHT22;8530;49.540;8.576;2023-01-24T15:35:32;4.10;96.80
16827;DHT22;8530;49.540;8.576;2023-01-24T15:40:59;4.10;96.90
16827;DHT22;8530;49.540;8.576;2023-01-24T15:43:30;4.00;96.90
16827;DHT22;8530;49.540;8.576;2023-01-24T15:46:17;4.00;96.90
16827;DHT22;8530;49.540;8.576;2023-01-24T15:49:04;3.90;96.90
16827;DHT22;8530;49.540;8.576;2023-01-24T15:51:35;3.90;97.00
16827;DHT22;8530;49.540;8.576;2023-01-24T15:54:08;3.90;97.10
16827;DHT22;8530;49.540;8.576;2023-01-24T15:56:37;3.90;97.10
16827;DHT22;8530;49.540;8.576;2023-01-24T16:01:37;4.00;97.30
16827;DHT22;8530;49.540;8.576;2023-01-24T16:04:11;4.00;97.30
16827;DHT22;8530;49.540;8.576;2023-01-24T16:06:40;4.00;97.30
16827;DHT22;8530;49.540;8.576;2023-01-24T16:09:07;4.00;97.30
16827;DHT22;8530;49.540;8.576;2023-01-24T16:11:35;4.00;97.40
16827;DHT22;8530;49.540;8.576;2023-01-24T16:14:05;4.00;97.40
16827;DHT22;8530;49.540;8.576;2023-01-24T16:16:33;4.00;97.40
16827;DHT22;8530;49.540;8.576;2023-01-24T16:19:00;4.00;97.40
16827;DHT22;8530;49.540;8.576;2023-01-24T16:21:27;4.00;97.40
16827;DHT22;8530;49.540;8.576;2023-01-24T16:23:55;4.00;97.40
16827;DHT22;8530;49.540;8.576;2023-01-24T16:26:24;4.00;97.40
16827;DHT22;8530;49.540;8.576;2023-01-24T16:28:51;4.00;97.50
16827;DHT22;8530;49.540;8.576;2023-01-24T16:31:18;3.90;97.40
16827;DHT22;8530;49.540;8.576;2023-01-24T16:33:45;3.90;97.50
16827;DHT22;8530;49.540;8.576;2023-01-24T16:36:12;3.90;97.50
16827;DHT22;8530;49.540;8.576;2023-01-24T16:38:40;3.90;97.60
16827;DHT22;8530;49.540;8.576;2023-01-24T16:41:08;3.90;97.60
16827;DHT22;8530;49.540;8.576;2023-01-24T16:43:35;3.90;97.60
16827;DHT22;8530;49.540;8.576;2023-01-24T16:46:02;3.90;97.60
16827;DHT22;8530;49.540;8.576;2023-01-24T16:48:30;4.00;97.70
16827;DHT22;8530;49.540;8.576;2023-01-24T16:50:57;4.00;97.70
16827;DHT22;8530;49.540;8.576;2023-01-24T16:53:25;4.00;97.70
16827;DHT22;8530;49.540;8.576;2023-01-24T16:55:57;4.00;97.70
16827;DHT22;8530;49.540;8.576;2023-01-24T16:58:26;4.00;97.70
16827;DHT22;8530;49.540;8.576;2023-01-24T17:00:55;4.00;97.70
16827;DHT22;8530;49.540;8.576;2023-01-24T17:03:22;4.00;97.60
16827;DHT22;8530;49.540;8.576;2023-01-24T17:05:50;4.00;97.70